createdAt,value
2023-03-21T00:00:13.415Z,95376.00
2023-03-21T00:04:13.457Z,95378.00
2023-03-21T00:08:13.467Z,95376.00
2023-03-21T00:12:13.567Z,95376.00
2023-03-21T00:20:14.620Z,95368.00
2023-03-21T00:24:13.649Z,95367.00
2023-03-21T00:28:13.675Z,95359.00
2023-03-21T00:32:13.662Z,95355.00
2023-03-21T00:36:13.877Z,95347.00
2023-03-21T00:40:25.328Z,95341.00
2023-03-21T00:44:14.758Z,95337.00
2023-03-21T00:48:13.809Z,95335.00
2023-03-21T00:52:22.326Z,95333.00
2023-03-21T00:56:14.795Z,95333.00
2023-03-21T01:00:13.819Z,95333.00
2023-03-21T01:04:13.797Z,95333.00
2023-03-21T01:08:24.512Z,95331.00
2023-03-21T01:12:14.729Z,95327.00
2023-03-21T01:16:13.791Z,95321.00
2023-03-21T01:20:13.670Z,95313.00
2023-03-21T01:24:13.620Z,95313.00
2023-03-21T01:28:13.757Z,95312.00
2023-03-21T01:32:13.846Z,95310.00
2023-03-21T01:36:14.426Z,95308.00
2023-03-21T01:40:14.019Z,95306.00
2023-03-21T01:44:14.131Z,95300.00
2023-03-21T01:48:14.262Z,95298.00
2023-03-21T01:52:23.537Z,95294.00
2023-03-21T01:56:15.320Z,95288.00
2023-03-21T02:00:14.270Z,95292.00
2023-03-21T02:04:14.320Z,95288.00
2023-03-21T02:08:14.248Z,95288.00
2023-03-21T02:12:14.328Z,95288.00
2023-03-21T02:16:14.480Z,95284.00
2023-03-21T02:20:14.597Z,95280.00
2023-03-21T02:24:14.725Z,95280.00
2023-03-21T02:28:14.754Z,95280.00
2023-03-21T02:32:22.735Z,95280.00
2023-03-21T02:36:15.773Z,95276.00
2023-03-21T02:40:14.704Z,95276.00
2023-03-21T02:44:14.684Z,95280.00
2023-03-21T02:48:27.863Z,95282.00
2023-03-21T02:52:25.558Z,95276.00
2023-03-21T02:56:15.573Z,95273.00
2023-03-21T03:00:17.191Z,95278.00
2023-03-21T03:04:14.531Z,95273.00
2023-03-21T03:08:14.476Z,95267.00
2023-03-21T03:12:14.407Z,95269.00
2023-03-21T03:16:14.409Z,95271.00
2023-03-21T03:20:16.867Z,95269.00
2023-03-21T03:24:14.317Z,95265.00
2023-03-21T03:28:14.277Z,95263.00
2023-03-21T03:32:14.283Z,95265.00
2023-03-21T03:36:30.553Z,95261.00
2023-03-21T03:40:15.196Z,95261.00
2023-03-21T03:44:14.144Z,95261.00
2023-03-21T03:48:14.176Z,95261.00
2023-03-21T03:52:14.129Z,95257.00
2023-03-21T03:56:14.071Z,95259.00
2023-03-21T04:00:14.084Z,95255.00
2023-03-21T04:04:14.228Z,95257.00
2023-03-21T04:08:14.246Z,95257.00
2023-03-21T04:12:14.311Z,95253.00
2023-03-21T04:16:14.437Z,95257.00
2023-03-21T04:20:20.980Z,95259.00
2023-03-21T04:24:15.480Z,95263.00
2023-03-21T04:28:14.481Z,95265.00
2023-03-21T04:32:14.504Z,95265.00
2023-03-21T04:36:14.428Z,95267.00
2023-03-21T04:40:14.364Z,95273.00
2023-03-21T04:44:14.450Z,95274.00
2023-03-21T04:48:14.623Z,95278.00
2023-03-21T04:52:14.659Z,95276.00
2023-03-21T04:56:14.741Z,95282.00
2023-03-21T05:00:14.849Z,95278.00
2023-03-21T05:04:15.061Z,95276.00
2023-03-21T05:08:15.025Z,95276.00
2023-03-21T05:12:15.114Z,95273.00
2023-03-21T05:16:15.175Z,95273.00
2023-03-21T05:20:15.329Z,95276.00
2023-03-21T05:24:15.367Z,95276.00
2023-03-21T05:28:15.427Z,95278.00
2023-03-21T05:32:15.543Z,95276.00
2023-03-21T05:36:15.712Z,95274.00
2023-03-21T05:40:15.783Z,95271.00
2023-03-21T05:44:15.864Z,95271.00
2023-03-21T05:48:16.050Z,95273.00
2023-03-21T05:52:16.090Z,95273.00
2023-03-21T05:56:16.195Z,95267.00
2023-03-21T06:00:16.270Z,95273.00
2023-03-21T06:04:16.451Z,95273.00
2023-03-21T06:08:16.499Z,95267.00
2023-03-21T06:12:16.581Z,95267.00
2023-03-21T06:16:16.735Z,95265.00
2023-03-21T06:20:16.807Z,95269.00
2023-03-21T06:24:16.893Z,95271.00
2023-03-21T06:28:16.980Z,95273.00
2023-03-21T06:32:17.106Z,95278.00
2023-03-21T06:36:17.176Z,95280.00
2023-03-21T06:40:17.659Z,95278.00
2023-03-21T06:44:17.681Z,95273.00
2023-03-21T06:48:17.716Z,95282.00
2023-03-21T06:52:17.499Z,95286.00
2023-03-21T06:56:17.718Z,95282.00
2023-03-21T07:00:18.218Z,95282.00
2023-03-21T07:04:17.947Z,95286.00
2023-03-21T07:08:17.963Z,95280.00
2023-03-21T07:12:17.977Z,95284.00
2023-03-21T07:16:18.223Z,95282.00
2023-03-21T07:20:17.973Z,95286.00
2023-03-21T07:24:17.925Z,95288.00
2023-03-21T07:28:17.950Z,95288.00
2023-03-21T07:32:17.924Z,95284.00
2023-03-21T07:36:17.980Z,95284.00
2023-03-21T07:40:17.883Z,95286.00
2023-03-21T07:44:17.868Z,95286.00
2023-03-21T07:48:18.221Z,95290.00
2023-03-21T07:52:18.215Z,95292.00
2023-03-21T07:56:18.208Z,95292.00
2023-03-21T08:00:17.876Z,95292.00
2023-03-21T08:04:17.978Z,95288.00
2023-03-21T08:08:18.016Z,95286.00
2023-03-21T08:12:18.009Z,95282.00
2023-03-21T08:16:19.069Z,95284.00
2023-03-21T08:20:18.024Z,95286.00
2023-03-21T08:24:18.069Z,95282.00
2023-03-21T08:28:18.070Z,95278.00
2023-03-21T08:32:18.093Z,95271.00
2023-03-21T08:36:18.220Z,95273.00
2023-03-21T08:40:18.726Z,95273.00
2023-03-21T08:44:18.728Z,95274.00
2023-03-21T08:48:18.776Z,95274.00
2023-03-21T08:52:18.746Z,95265.00
2023-03-21T08:56:18.615Z,95265.00
2023-03-21T09:00:18.723Z,95261.00
2023-03-21T09:04:18.865Z,95257.00
2023-03-21T09:08:18.758Z,95261.00
2023-03-21T09:12:18.792Z,95259.00
2023-03-21T09:16:18.921Z,95251.00
2023-03-21T09:20:18.910Z,95245.00
2023-03-21T09:24:18.999Z,95241.00
2023-03-21T09:28:19.074Z,95243.00
2023-03-21T09:32:19.160Z,95237.00
2023-03-21T09:36:19.767Z,95235.00
2023-03-21T09:40:19.752Z,95222.00
2023-03-21T09:44:19.560Z,95212.00
2023-03-21T09:48:19.945Z,95202.00
2023-03-21T09:52:20.237Z,95202.00
2023-03-21T09:56:20.247Z,95192.00
2023-03-21T10:00:20.344Z,95188.00
2023-03-21T10:04:20.626Z,95192.00
2023-03-21T10:08:21.265Z,95186.00
2023-03-21T10:12:21.041Z,95179.00
2023-03-21T10:16:21.371Z,95177.00
2023-03-21T10:20:21.786Z,95165.00
2023-03-21T10:24:21.798Z,95163.00
2023-03-21T10:28:22.247Z,95157.00
2023-03-21T10:32:22.891Z,95151.00
2023-03-21T10:36:22.678Z,95153.00
2023-03-21T10:40:23.263Z,95147.00
2023-03-21T10:44:23.252Z,95145.00
2023-03-21T10:48:23.905Z,95141.00
2023-03-21T10:52:23.689Z,95137.00
2023-03-21T10:56:23.790Z,95133.00
2023-03-21T11:00:24.280Z,95133.00
2023-03-21T11:04:24.052Z,95127.00
2023-03-21T11:08:24.020Z,95127.00
2023-03-21T11:12:24.047Z,95122.00
2023-03-21T11:16:24.066Z,95122.00
2023-03-21T11:20:24.079Z,95116.00
2023-03-21T11:24:24.109Z,95114.00
2023-03-21T11:28:24.095Z,95108.00
2023-03-21T11:32:24.087Z,95098.00
2023-03-21T11:36:24.361Z,95090.00
2023-03-21T11:40:24.317Z,95086.00
2023-03-21T11:44:24.329Z,95082.00
2023-03-21T11:48:24.136Z,95084.00
2023-03-21T11:52:24.061Z,95079.00
2023-03-21T11:56:24.296Z,95069.00
2023-03-21T12:00:24.119Z,95065.00
2023-03-21T12:04:24.108Z,95057.00
2023-03-21T12:08:24.265Z,95051.00
2023-03-21T12:12:32.999Z,95047.00
2023-03-21T12:16:25.161Z,95047.00
2023-03-21T12:20:24.247Z,95039.00
2023-03-21T12:24:24.498Z,95030.00
2023-03-21T12:28:32.509Z,95022.00
2023-03-21T12:32:25.825Z,95018.00
2023-03-21T12:36:24.817Z,95018.00
2023-03-21T12:40:24.775Z,95006.00
2023-03-21T12:44:24.908Z,94998.00
2023-03-21T12:48:25.379Z,94996.00
2023-03-21T12:52:24.858Z,94994.00
2023-03-21T12:56:24.873Z,94992.00
2023-03-21T13:00:25.076Z,94988.00
2023-03-21T13:04:25.129Z,94986.00
2023-03-21T13:08:25.205Z,94983.00
2023-03-21T13:12:25.285Z,94981.00
2023-03-21T13:16:25.596Z,94977.00
2023-03-21T13:20:25.648Z,94973.00
2023-03-21T13:24:26.410Z,94971.00
2023-03-21T13:28:26.114Z,94963.00
2023-03-21T13:32:26.513Z,94963.00
2023-03-21T13:36:26.598Z,94957.00
2023-03-21T13:40:26.843Z,94951.00
2023-03-21T13:44:26.821Z,94947.00
2023-03-21T13:48:27.017Z,94939.00
2023-03-21T13:52:26.863Z,94932.00
2023-03-21T13:56:26.872Z,94928.00
2023-03-21T14:00:26.902Z,94920.00
2023-03-21T14:04:32.037Z,94918.00
2023-03-21T14:08:37.142Z,94916.00
2023-03-21T14:12:27.908Z,94916.00
2023-03-21T14:16:26.879Z,94908.00
2023-03-21T14:20:27.030Z,94906.00
2023-03-21T14:24:26.911Z,94902.00
2023-03-21T14:28:27.374Z,94900.00
2023-03-21T14:32:26.980Z,94898.00
2023-03-21T14:36:27.115Z,94894.00
2023-03-21T14:40:27.000Z,94891.00
2023-03-21T14:44:27.063Z,94889.00
2023-03-21T14:48:27.151Z,94887.00
2023-03-21T14:52:27.405Z,94885.00
2023-03-21T14:56:27.453Z,94883.00
2023-03-21T15:00:27.616Z,94881.00
2023-03-21T15:04:27.866Z,94879.00
2023-03-21T15:08:28.471Z,94873.00
2023-03-21T15:12:28.222Z,94867.00
2023-03-21T15:16:28.379Z,94867.00
2023-03-21T15:20:28.519Z,94863.00
2023-03-21T15:24:28.807Z,94863.00
2023-03-21T15:28:28.877Z,94863.00
2023-03-21T15:32:29.102Z,94863.00
2023-03-21T15:36:29.311Z,94865.00
2023-03-21T15:40:29.584Z,94861.00
2023-03-21T15:44:29.684Z,94855.00
2023-03-21T15:48:29.969Z,94849.00
2023-03-21T15:52:30.029Z,94844.00
2023-03-21T15:56:30.223Z,94844.00
2023-03-21T16:00:30.297Z,94844.00
2023-03-21T16:04:30.491Z,94846.00
2023-03-21T16:08:30.707Z,94853.00
2023-03-21T16:12:30.921Z,94853.00
2023-03-21T16:16:31.004Z,94857.00
2023-03-21T16:20:31.011Z,94861.00
2023-03-21T16:24:31.078Z,94861.00
2023-03-21T16:28:31.140Z,94861.00
2023-03-21T16:32:31.235Z,94861.00
2023-03-21T16:36:31.353Z,94863.00
2023-03-21T16:40:31.481Z,94871.00
2023-03-21T16:44:31.579Z,94869.00
2023-03-21T16:48:31.693Z,94871.00
2023-03-21T16:52:31.761Z,94875.00
2023-03-21T16:56:31.856Z,94881.00
2023-03-21T17:00:31.922Z,94877.00
2023-03-21T17:04:32.015Z,94879.00
2023-03-21T17:08:32.132Z,94881.00
2023-03-21T17:12:32.180Z,94883.00
2023-03-21T17:16:32.464Z,94887.00
2023-03-21T17:20:32.441Z,94889.00
2023-03-21T17:24:32.483Z,94894.00
2023-03-21T17:28:32.601Z,94898.00
2023-03-21T17:32:32.741Z,94900.00
2023-03-21T17:36:32.831Z,94900.00
2023-03-21T17:40:32.951Z,94902.00
2023-03-21T17:44:33.024Z,94898.00
2023-03-21T17:48:33.152Z,94902.00
2023-03-21T17:52:33.263Z,94904.00
2023-03-21T17:56:33.425Z,94904.00
2023-03-21T18:00:33.518Z,94904.00
2023-03-21T18:04:33.660Z,94916.00
2023-03-21T18:08:33.797Z,94918.00
2023-03-21T18:12:33.871Z,94918.00
2023-03-21T18:16:34.079Z,94922.00
2023-03-21T18:20:57.531Z,94930.00
2023-03-21T18:24:35.192Z,94932.00
2023-03-21T18:28:34.228Z,94938.00
2023-03-21T18:32:34.365Z,94943.00
2023-03-21T18:36:34.639Z,94949.00
2023-03-21T18:40:34.400Z,94951.00
2023-03-21T18:44:34.533Z,94959.00
2023-03-21T18:48:35.679Z,94965.00
2023-03-21T18:52:34.847Z,94963.00
2023-03-21T18:57:20.452Z,94967.00
2023-03-21T19:00:36.279Z,94969.00
2023-03-21T19:04:35.186Z,94967.00
2023-03-21T19:08:35.187Z,94971.00
2023-03-21T19:12:35.239Z,94975.00
2023-03-21T19:16:56.248Z,94981.00
2023-03-21T19:20:36.616Z,94986.00
2023-03-21T19:24:35.540Z,94985.00
2023-03-21T19:28:35.591Z,94985.00
2023-03-21T19:32:35.646Z,94986.00
2023-03-21T19:36:35.926Z,94986.00
2023-03-21T19:40:36.419Z,94992.00
2023-03-21T19:44:36.284Z,94992.00
2023-03-21T19:48:38.154Z,94988.00
2023-03-21T19:52:36.815Z,94988.00
2023-03-21T19:56:37.681Z,94988.00
2023-03-21T20:00:37.546Z,94992.00
2023-03-21T20:04:37.490Z,94992.00
2023-03-21T20:09:05.364Z,94994.00
2023-03-21T20:12:38.809Z,94996.00
2023-03-21T20:16:37.910Z,94998.00
2023-03-21T20:20:38.302Z,94998.00
2023-03-21T20:24:38.268Z,94998.00
2023-03-21T20:28:38.598Z,95000.00
2023-03-21T20:32:38.893Z,95004.00
2023-03-21T20:36:41.116Z,95000.00
2023-03-21T20:40:39.779Z,95006.00
2023-03-21T20:44:57.256Z,95008.00
2023-03-21T20:48:40.375Z,95008.00
2023-03-21T20:53:01.201Z,95008.00
2023-03-21T20:56:40.574Z,95010.00
2023-03-21T21:00:40.181Z,95014.00
2023-03-21T21:08:40.958Z,95016.00
2023-03-21T21:12:40.064Z,95020.00
2023-03-21T21:16:40.449Z,95024.00
2023-03-21T21:20:40.881Z,95026.00
2023-03-21T21:24:40.976Z,95028.00
2023-03-21T21:28:41.288Z,95032.00
2023-03-21T21:32:41.647Z,95033.00
2023-03-21T21:36:41.983Z,95037.00
2023-03-21T21:40:42.362Z,95037.00
2023-03-21T21:44:42.424Z,95037.00
2023-03-21T21:48:42.542Z,95035.00
2023-03-21T21:52:42.576Z,95033.00
2023-03-21T21:56:42.667Z,95032.00
2023-03-21T22:00:42.860Z,95035.00
2023-03-21T22:04:42.863Z,95039.00
2023-03-21T22:08:42.947Z,95035.00
2023-03-21T22:12:43.037Z,95043.00
2023-03-21T22:16:43.083Z,95047.00
2023-03-21T22:20:43.044Z,95047.00
2023-03-21T22:24:43.104Z,95043.00
2023-03-21T22:28:43.604Z,95037.00
2023-03-21T22:32:43.211Z,95039.00
2023-03-21T22:36:43.235Z,95035.00
2023-03-21T22:40:43.290Z,95035.00
2023-03-21T22:44:43.392Z,95041.00
2023-03-21T22:48:43.391Z,95039.00
2023-03-21T22:52:43.503Z,95039.00
2023-03-21T22:56:43.724Z,95039.00
2023-03-21T23:00:43.914Z,95039.00
2023-03-21T23:04:44.015Z,95035.00
2023-03-21T23:08:44.182Z,95033.00
2023-03-21T23:12:44.266Z,95037.00
2023-03-21T23:16:44.360Z,95037.00
2023-03-21T23:20:44.476Z,95035.00
2023-03-21T23:24:44.602Z,95032.00
2023-03-21T23:28:44.739Z,95033.00
2023-03-21T23:32:44.907Z,95033.00
2023-03-21T23:36:45.024Z,95030.00
2023-03-21T23:40:45.169Z,95033.00
2023-03-21T23:44:45.290Z,95030.00
2023-03-21T23:48:45.415Z,95033.00
2023-03-21T23:52:45.596Z,95032.00
2023-03-21T23:56:45.750Z,95033.00
